Terminal Aerodrome Forecast
Issued by NWS Sioux Falls, SD

Home | Current Version | Previous Version | Graphics & Text | Print | Product List | Glossary On
Versions: 1 2 3 4 5 6 7 8 9 10 11 12 13 14 15
000
FTUS43 KFSD 240900 AAB
TAFFSD
TAF AMD
KFSD 240944Z 2410/2506 03006KT P6SM -SHRA SCT009 OVC015
      TEMPO 2410/2412 5SM -SHRA BKN009
     FM241200 01008KT P6SM SCT015 BKN070
      TEMPO 2412/2413 BKN015
     FM241300 33012KT P6SM BKN100
     FM241800 32017G26KT P6SM SKC
     FM250200 32011KT P6SM SKC=

USA.gov is the U.S. government's official web portal to all federal, state and local government web resources and services.